createdAt,value
2022-09-15T00:01:13.769Z,20.47
2022-09-15T00:03:42.554Z,20.48
2022-09-15T00:06:12.323Z,20.49
2022-09-15T00:08:40.967Z,20.51
2022-09-15T00:11:11.221Z,20.53
2022-09-15T00:13:40.998Z,20.50
2022-09-15T00:16:13.523Z,20.45
2022-09-15T00:18:44.148Z,20.34
2022-09-15T00:21:17.045Z,20.24
2022-09-15T00:23:45.514Z,20.16
2022-09-15T00:26:15.861Z,20.08
2022-09-15T00:28:44.495Z,20.02
2022-09-15T00:31:14.752Z,19.98
2022-09-15T00:33:43.583Z,19.93
2022-09-15T00:36:15.113Z,19.92
2022-09-15T00:38:43.640Z,19.91
2022-09-15T00:41:13.996Z,19.90
2022-09-15T00:43:48.693Z,19.90
2022-09-15T00:46:18.548Z,19.93
2022-09-15T00:48:50.069Z,19.93
2022-09-15T00:51:23.895Z,19.94
2022-09-15T00:53:53.717Z,19.96
2022-09-15T00:56:23.033Z,19.99
2022-09-15T00:58:56.439Z,19.96
2022-09-15T01:01:27.172Z,19.99
2022-09-15T01:03:56.552Z,20.02
2022-09-15T01:06:31.801Z,20.04
2022-09-15T01:09:05.185Z,20.06
2022-09-15T01:11:33.693Z,20.07
2022-09-15T01:14:02.012Z,20.08
2022-09-15T01:16:45.100Z,20.04
2022-09-15T01:19:37.310Z,20.04
2022-09-15T01:22:18.452Z,20.09
2022-09-15T01:25:03.774Z,20.13
2022-09-15T01:28:25.431Z,20.16
2022-09-15T01:30:59.701Z,20.24
2022-09-15T01:33:35.619Z,20.25
2022-09-15T01:36:12.659Z,20.29
2022-09-15T01:38:50.587Z,20.34
2022-09-15T01:41:25.376Z,20.39
2022-09-15T01:43:57.350Z,20.48
2022-09-15T01:46:28.978Z,20.53
2022-09-15T01:49:00.599Z,20.57
2022-09-15T01:51:29.616Z,20.66
2022-09-15T01:54:00.920Z,20.73
2022-09-15T01:56:28.877Z,20.79
2022-09-15T01:58:56.838Z,20.83
2022-09-15T02:01:32.418Z,20.89
2022-09-15T02:04:06.188Z,20.89
2022-09-15T02:06:40.773Z,20.92
2022-09-15T02:09:14.568Z,20.94
2022-09-15T02:11:52.296Z,20.98
2022-09-15T02:14:32.416Z,20.97
2022-09-15T02:17:03.038Z,20.97
2022-09-15T02:19:34.298Z,20.94
2022-09-15T02:22:10.634Z,20.95
2022-09-15T02:24:43.285Z,20.98
2022-09-15T02:27:18.575Z,20.97
2022-09-15T02:29:50.133Z,20.96
2022-09-15T02:32:23.289Z,20.96
2022-09-15T02:34:53.308Z,20.99
2022-09-15T02:37:24.345Z,20.98
2022-09-15T02:39:57.641Z,20.96
2022-09-15T02:42:26.491Z,20.94
2022-09-15T02:44:54.814Z,20.90
2022-09-15T02:47:25.051Z,20.85
2022-09-15T02:49:54.005Z,20.80
2022-09-15T02:52:22.330Z,20.77
2022-09-15T02:54:50.567Z,20.71
2022-09-15T02:57:18.821Z,20.66
2022-09-15T03:00:03.940Z,20.61
2022-09-15T03:02:33.056Z,20.63
2022-09-15T03:05:00.968Z,20.65
2022-09-15T03:07:30.153Z,20.65
2022-09-15T03:09:58.367Z,20.68
2022-09-15T03:12:27.066Z,20.70
2022-09-15T03:14:55.156Z,20.69
2022-09-15T03:17:23.253Z,20.69
2022-09-15T03:19:53.258Z,20.69
2022-09-15T03:22:21.481Z,20.69
2022-09-15T03:24:49.380Z,20.71
2022-09-15T03:27:17.818Z,20.72
2022-09-15T03:29:46.000Z,20.67
2022-09-15T03:32:14.154Z,20.65
2022-09-15T03:34:42.119Z,20.67
2022-09-15T03:37:11.636Z,20.70
2022-09-15T03:39:39.506Z,20.71
2022-09-15T03:42:07.690Z,20.66
2022-09-15T03:44:35.892Z,20.65
2022-09-15T03:47:03.835Z,20.67
2022-09-15T03:49:31.713Z,20.69
2022-09-15T03:52:00.035Z,20.73
2022-09-15T03:54:29.665Z,20.74
2022-09-15T03:56:57.659Z,20.77
2022-09-15T03:59:25.750Z,20.78
2022-09-15T04:01:53.927Z,20.79
2022-09-15T04:04:21.942Z,20.79
2022-09-15T04:06:49.924Z,20.78
2022-09-15T04:09:20.248Z,20.77
2022-09-15T04:11:49.816Z,20.74
2022-09-15T04:14:17.753Z,20.72
2022-09-15T04:16:45.825Z,20.71
2022-09-15T04:19:14.092Z,20.72
2022-09-15T04:21:42.131Z,20.72
2022-09-15T04:24:10.121Z,20.73
2022-09-15T04:26:38.724Z,20.76
2022-09-15T04:29:14.192Z,20.73
2022-09-15T04:31:42.372Z,20.67
2022-09-15T04:34:10.445Z,20.65
2022-09-15T04:36:38.433Z,20.67
2022-09-15T04:39:07.200Z,20.68
2022-09-15T04:41:35.362Z,20.63
2022-09-15T04:44:04.442Z,20.57
2022-09-15T04:46:33.852Z,20.61
2022-09-15T04:49:01.890Z,20.67
2022-09-15T04:51:29.861Z,20.74
2022-09-15T04:53:58.701Z,20.82
2022-09-15T04:56:27.947Z,20.95
2022-09-15T04:59:03.511Z,21.05
2022-09-15T05:01:35.321Z,21.16
2022-09-15T05:04:05.041Z,21.21
2022-09-15T05:06:34.850Z,21.29
2022-09-15T05:09:09.048Z,21.36
2022-09-15T05:11:37.920Z,21.47
2022-09-15T05:14:05.887Z,21.55
2022-09-15T05:16:35.323Z,21.61
2022-09-15T05:19:04.683Z,21.77
2022-09-15T05:21:33.578Z,22.01
2022-09-15T05:24:01.619Z,22.23
2022-09-15T05:26:30.745Z,22.43
2022-09-15T05:28:58.855Z,22.61
2022-09-15T05:31:30.660Z,22.90
2022-09-15T05:34:02.164Z,23.16
2022-09-15T05:36:30.743Z,23.39
2022-09-15T05:38:59.392Z,23.60
2022-09-15T05:41:28.866Z,23.78
2022-09-15T05:43:58.371Z,23.95
2022-09-15T05:46:27.697Z,24.12
2022-09-15T05:48:57.698Z,24.26
2022-09-15T05:51:27.699Z,24.39
2022-09-15T05:53:55.688Z,24.60
2022-09-15T05:56:23.782Z,24.72
2022-09-15T05:58:52.211Z,24.85
2022-09-15T06:01:21.659Z,24.96
2022-09-15T06:03:49.751Z,25.11
2022-09-15T06:06:18.364Z,25.19
2022-09-15T06:08:55.447Z,25.23
2022-09-15T06:11:28.312Z,25.30
2022-09-15T06:13:56.851Z,25.40
2022-09-15T06:16:26.684Z,25.45
2022-09-15T06:18:55.503Z,25.52
2022-09-15T06:21:24.594Z,25.57
2022-09-15T06:23:55.898Z,25.61
2022-09-15T06:26:25.054Z,25.60
2022-09-15T06:28:55.316Z,25.60
2022-09-15T06:31:24.463Z,25.58
2022-09-15T06:33:55.877Z,25.58
2022-09-15T06:36:25.992Z,25.55
2022-09-15T06:38:56.058Z,25.52
2022-09-15T06:41:24.273Z,25.48
2022-09-15T06:43:53.201Z,25.41
2022-09-15T06:46:23.705Z,25.39
2022-09-15T06:48:53.465Z,25.44
2022-09-15T06:51:24.130Z,25.50
2022-09-15T06:53:54.185Z,25.59
2022-09-15T06:56:24.895Z,25.67
2022-09-15T06:58:53.122Z,25.77
2022-09-15T07:01:23.379Z,25.81
2022-09-15T07:03:51.989Z,25.75
2022-09-15T07:06:20.368Z,25.70
2022-09-15T07:08:49.672Z,25.73
2022-09-15T07:11:18.599Z,25.79
2022-09-15T07:13:49.677Z,25.83
2022-09-15T07:16:20.171Z,25.83
2022-09-15T07:18:49.725Z,25.77
2022-09-15T07:21:21.654Z,25.72
2022-09-15T07:23:50.377Z,25.67
2022-09-15T07:26:20.447Z,25.66
2022-09-15T07:28:51.522Z,25.57
2022-09-15T07:31:21.812Z,25.53
2022-09-15T07:33:50.458Z,25.59
2022-09-15T07:36:18.945Z,25.66
2022-09-15T07:38:48.890Z,25.85
2022-09-15T07:41:21.264Z,26.00
2022-09-15T07:43:52.602Z,25.94
2022-09-15T07:46:22.009Z,25.96
2022-09-15T07:48:51.857Z,26.08
2022-09-15T07:51:20.894Z,26.11
2022-09-15T07:53:50.137Z,26.12
2022-09-15T07:56:19.114Z,26.14
2022-09-15T07:58:47.376Z,26.11
2022-09-15T08:01:18.172Z,26.10
2022-09-15T08:03:50.666Z,26.06
2022-09-15T08:06:20.084Z,26.02
2022-09-15T08:08:49.247Z,26.02
2022-09-15T08:11:19.509Z,26.03
2022-09-15T08:13:48.498Z,25.91
2022-09-15T08:16:19.830Z,25.85
2022-09-15T08:18:48.836Z,25.87
2022-09-15T08:21:20.188Z,25.88
2022-09-15T08:23:52.011Z,26.02
2022-09-15T08:26:20.576Z,26.11
2022-09-15T08:28:48.888Z,26.03
2022-09-15T08:31:18.943Z,25.90
2022-09-15T08:33:50.294Z,25.87
2022-09-15T08:36:18.717Z,25.88
2022-09-15T08:38:47.745Z,25.95
2022-09-15T08:41:20.097Z,26.10
2022-09-15T08:43:54.877Z,26.26
2022-09-15T08:46:29.011Z,26.33
2022-09-15T08:49:05.524Z,26.52
2022-09-15T08:51:40.741Z,26.76
2022-09-15T08:54:16.063Z,27.01
2022-09-15T08:56:44.761Z,27.15
2022-09-15T08:59:16.015Z,27.25
2022-09-15T09:02:04.067Z,27.46
2022-09-15T09:04:43.626Z,27.76
2022-09-15T09:07:25.279Z,27.89
2022-09-15T09:09:58.048Z,27.92
2022-09-15T09:12:41.085Z,27.90
2022-09-15T09:15:22.081Z,27.85
2022-09-15T09:18:11.041Z,27.56
2022-09-15T09:20:50.128Z,27.19
2022-09-15T09:23:26.287Z,26.99
2022-09-15T09:25:56.080Z,26.88
2022-09-15T09:28:31.763Z,26.69
2022-09-15T09:31:04.206Z,26.60
2022-09-15T09:33:47.522Z,26.51
2022-09-15T09:36:16.109Z,26.52
2022-09-15T09:38:46.573Z,26.47
2022-09-15T09:41:17.912Z,26.42
2022-09-15T09:43:48.629Z,26.53
2022-09-15T09:46:19.251Z,26.71
2022-09-15T09:48:53.643Z,26.92
2022-09-15T09:51:33.890Z,27.12
2022-09-15T09:54:07.829Z,27.32
2022-09-15T09:56:35.747Z,27.52
2022-09-15T09:59:04.036Z,27.62
2022-09-15T10:01:32.172Z,27.70
2022-09-15T10:04:19.126Z,27.82
2022-09-15T10:06:47.651Z,28.08
2022-09-15T10:09:18.313Z,28.16
2022-09-15T10:11:48.111Z,28.04
2022-09-15T10:14:22.883Z,27.92
2022-09-15T10:16:59.641Z,27.97
2022-09-15T10:19:30.700Z,28.05
2022-09-15T10:21:59.480Z,28.10
2022-09-15T10:24:36.769Z,28.13
2022-09-15T10:27:20.280Z,28.18
2022-09-15T10:29:48.704Z,28.26
2022-09-15T10:32:28.875Z,28.22
2022-09-15T10:35:02.580Z,28.18
2022-09-15T10:37:36.107Z,28.14
2022-09-15T10:40:24.037Z,28.32
2022-09-15T10:42:53.900Z,28.33
2022-09-15T10:45:28.127Z,28.45
2022-09-15T10:48:15.556Z,28.69
2022-09-15T10:50:55.193Z,28.96
2022-09-15T10:53:39.816Z,29.24
2022-09-15T10:56:20.365Z,29.24
2022-09-15T10:59:03.496Z,29.25
2022-09-15T11:01:45.554Z,29.18
2022-09-15T11:04:42.247Z,29.15
2022-09-15T11:07:18.504Z,29.08
2022-09-15T11:09:52.227Z,28.81
2022-09-15T11:12:33.129Z,28.73
2022-09-15T11:15:18.998Z,28.74
2022-09-15T11:18:01.260Z,28.76
2022-09-15T11:20:57.531Z,28.80
2022-09-15T11:23:33.098Z,28.67
2022-09-15T11:26:06.469Z,28.82
2022-09-15T11:28:40.994Z,29.05
2022-09-15T11:31:15.677Z,29.38
2022-09-15T11:33:49.923Z,29.71
2022-09-15T11:36:21.612Z,29.88
2022-09-15T11:38:57.704Z,29.90
2022-09-15T11:41:34.488Z,29.83
2022-09-15T11:44:22.385Z,29.72
2022-09-15T11:47:01.666Z,29.55
2022-09-15T11:49:35.674Z,29.23
2022-09-15T11:52:13.819Z,28.97
2022-09-15T11:54:47.843Z,28.91
2022-09-15T11:57:19.715Z,28.83
2022-09-15T11:59:53.234Z,28.85
2022-09-15T12:02:27.252Z,28.93
2022-09-15T12:05:07.506Z,29.01
2022-09-15T12:07:42.528Z,29.06
2022-09-15T12:10:19.038Z,28.98
2022-09-15T12:12:48.387Z,28.87
2022-09-15T12:15:18.557Z,28.69
2022-09-15T12:17:53.533Z,28.57
2022-09-15T12:20:26.400Z,28.62
2022-09-15T12:23:01.683Z,28.60
2022-09-15T12:25:39.571Z,28.64
2022-09-15T12:28:42.581Z,28.74
2022-09-15T12:31:25.666Z,28.91
2022-09-15T12:33:58.976Z,29.09
2022-09-15T12:36:42.743Z,29.32
2022-09-15T12:39:30.004Z,29.62
2022-09-15T12:42:08.620Z,29.65
2022-09-15T12:44:38.569Z,29.59
2022-09-15T12:47:18.646Z,29.36
2022-09-15T12:49:48.949Z,29.15
2022-09-15T12:52:18.527Z,28.98
2022-09-15T12:54:53.933Z,28.87
2022-09-15T12:57:27.626Z,28.77
2022-09-15T13:00:18.079Z,28.67
2022-09-15T13:02:48.003Z,28.58
2022-09-15T13:05:52.297Z,28.48
2022-09-15T13:08:48.305Z,28.56
2022-09-15T13:11:19.317Z,28.69
2022-09-15T13:13:52.242Z,28.76
2022-09-15T13:16:28.287Z,28.85
2022-09-15T13:19:07.373Z,29.02
2022-09-15T13:21:38.762Z,29.29
2022-09-15T13:24:14.270Z,30.08
2022-09-15T13:26:45.296Z,30.51
2022-09-15T13:29:17.859Z,31.29
2022-09-15T13:31:53.542Z,32.19
2022-09-15T13:35:04.815Z,33.26
2022-09-15T13:38:15.067Z,33.34
2022-09-15T13:41:06.674Z,34.89
2022-09-15T13:44:03.045Z,36.41
2022-09-15T13:46:45.567Z,38.05
2022-09-15T13:49:39.814Z,38.05
2022-09-15T13:52:23.042Z,38.02
2022-09-15T13:55:11.293Z,37.18
2022-09-15T14:00:33.709Z,35.49
2022-09-15T14:03:06.867Z,34.73
2022-09-15T14:05:36.940Z,33.62
2022-09-15T14:08:09.065Z,32.55
2022-09-15T14:10:46.091Z,31.79
2022-09-15T14:13:18.809Z,31.19
2022-09-15T14:15:57.973Z,30.55
2022-09-15T14:18:27.361Z,30.12
2022-09-15T14:21:03.453Z,29.70
2022-09-15T14:23:32.769Z,29.50
2022-09-15T14:26:02.407Z,29.48
2022-09-15T14:28:33.318Z,29.64
2022-09-15T14:31:02.965Z,29.75
2022-09-15T14:33:38.184Z,29.70
2022-09-15T14:36:14.656Z,29.63
2022-09-15T14:38:42.771Z,29.47
2022-09-15T14:41:20.500Z,29.33
2022-09-15T14:43:48.648Z,29.61
2022-09-15T14:46:20.772Z,29.88
2022-09-15T14:48:50.227Z,29.87
2022-09-15T14:51:22.787Z,29.82
2022-09-15T14:53:54.501Z,29.71
2022-09-15T14:56:26.143Z,29.45
2022-09-15T14:58:57.392Z,29.20
2022-09-15T15:01:33.531Z,29.07
2022-09-15T15:04:12.065Z,28.98
2022-09-15T15:06:50.620Z,28.91
2022-09-15T15:09:23.771Z,28.93
2022-09-15T15:11:54.936Z,29.03
2022-09-15T15:14:26.030Z,29.12
2022-09-15T15:16:59.648Z,29.20
2022-09-15T15:19:38.323Z,29.25
2022-09-15T15:22:17.799Z,29.22
2022-09-15T15:24:48.380Z,29.19
2022-09-15T15:27:43.355Z,29.08
2022-09-15T15:30:34.329Z,29.00
2022-09-15T15:33:04.415Z,28.93
2022-09-15T15:35:35.797Z,28.85
2022-09-15T15:38:06.871Z,28.75
2022-09-15T15:40:37.602Z,28.64
2022-09-15T15:43:08.020Z,28.49
2022-09-15T15:45:48.398Z,28.34
2022-09-15T15:48:16.455Z,28.17
2022-09-15T15:50:45.761Z,28.03
2022-09-15T15:53:17.687Z,27.89
2022-09-15T15:55:45.982Z,27.75
2022-09-15T15:58:15.222Z,27.61
2022-09-15T16:00:46.256Z,27.46
2022-09-15T16:03:16.152Z,27.33
2022-09-15T16:05:47.564Z,27.17
2022-09-15T16:08:24.258Z,27.01
2022-09-15T16:10:52.928Z,26.85
2022-09-15T16:13:23.324Z,26.72
2022-09-15T16:15:51.603Z,26.57
2022-09-15T16:18:19.696Z,26.42
2022-09-15T16:20:49.037Z,26.24
2022-09-15T16:23:18.988Z,26.06
2022-09-15T16:25:50.148Z,25.92
2022-09-15T16:28:18.469Z,25.80
2022-09-15T16:30:46.743Z,25.64
2022-09-15T16:33:15.811Z,25.47
2022-09-15T16:35:51.319Z,25.32
2022-09-15T16:38:20.319Z,25.16
2022-09-15T16:40:48.444Z,25.01
2022-09-15T16:43:18.224Z,24.91
2022-09-15T16:45:46.812Z,24.74
2022-09-15T16:48:15.051Z,24.57
2022-09-15T16:51:01.672Z,24.45
2022-09-15T16:53:32.983Z,24.31
2022-09-15T16:56:01.042Z,24.22
2022-09-15T16:58:29.103Z,24.15
2022-09-15T17:00:57.949Z,24.09
2022-09-15T17:03:27.272Z,24.03
2022-09-15T17:05:57.558Z,23.96
2022-09-15T17:08:29.425Z,23.92
2022-09-15T17:11:00.656Z,23.88
2022-09-15T17:13:30.749Z,23.89
2022-09-15T17:15:59.654Z,23.88
2022-09-15T17:18:28.873Z,23.86
2022-09-15T17:20:57.104Z,23.84
2022-09-15T17:23:27.741Z,23.78
2022-09-15T17:25:58.457Z,23.70
2022-09-15T17:28:31.201Z,23.64
2022-09-15T17:31:00.803Z,23.58
2022-09-15T17:33:29.887Z,23.55
2022-09-15T17:35:58.274Z,23.50
2022-09-15T17:38:26.738Z,23.49
2022-09-15T17:40:56.728Z,23.46
2022-09-15T17:43:28.202Z,23.42
2022-09-15T17:45:58.244Z,23.40
2022-09-15T17:48:26.489Z,23.40
2022-09-15T17:50:54.586Z,23.39
2022-09-15T17:53:26.737Z,23.37
2022-09-15T17:55:56.529Z,23.33
2022-09-15T17:58:26.658Z,23.29
2022-09-15T18:00:56.165Z,23.26
2022-09-15T18:03:27.918Z,23.23
2022-09-15T18:05:57.017Z,23.18
2022-09-15T18:08:25.370Z,23.13
2022-09-15T18:10:53.835Z,23.05
2022-09-15T18:13:23.626Z,22.97
2022-09-15T18:15:51.983Z,22.83
2022-09-15T18:18:23.936Z,22.69
2022-09-15T18:20:53.346Z,22.62
2022-09-15T18:23:23.598Z,22.56
2022-09-15T18:25:51.971Z,22.52
2022-09-15T18:28:20.733Z,22.49
2022-09-15T18:30:50.531Z,22.51
2022-09-15T18:33:20.350Z,22.53
2022-09-15T18:35:51.128Z,22.58
2022-09-15T18:38:19.345Z,22.62
2022-09-15T18:40:49.364Z,22.67
2022-09-15T18:43:17.660Z,22.69
2022-09-15T18:45:45.664Z,22.68
2022-09-15T18:48:14.343Z,22.64
2022-09-15T18:50:42.949Z,22.63
2022-09-15T18:53:13.233Z,22.58
2022-09-15T18:55:42.711Z,22.54
2022-09-15T18:58:11.154Z,22.51
2022-09-15T19:00:39.247Z,22.49
2022-09-15T19:03:09.485Z,22.45
2022-09-15T19:05:37.678Z,22.40
2022-09-15T19:08:08.293Z,22.39
2022-09-15T19:10:39.449Z,22.38
2022-09-15T19:13:07.440Z,22.43
2022-09-15T19:15:35.641Z,22.45
2022-09-15T19:18:03.607Z,22.46
2022-09-15T19:20:31.577Z,22.46
2022-09-15T19:22:59.594Z,22.40
2022-09-15T19:25:27.638Z,22.30
2022-09-15T19:27:57.130Z,22.21
2022-09-15T19:30:25.479Z,22.15
2022-09-15T19:32:53.950Z,22.11
2022-09-15T19:35:21.957Z,22.08
2022-09-15T19:37:50.239Z,22.03
2022-09-15T19:40:18.324Z,22.00
2022-09-15T19:42:46.914Z,21.95
2022-09-15T19:45:16.330Z,21.87
2022-09-15T19:47:44.321Z,21.78
2022-09-15T19:50:13.018Z,21.66
2022-09-15T19:52:41.191Z,21.57
2022-09-15T19:55:10.305Z,21.47
2022-09-15T19:57:40.769Z,21.40
2022-09-15T20:00:10.946Z,21.35
2022-09-15T20:02:40.498Z,21.34
2022-09-15T20:05:09.909Z,21.27
2022-09-15T20:07:38.117Z,21.16
2022-09-15T20:10:07.192Z,21.14
2022-09-15T20:12:35.225Z,21.19
2022-09-15T20:15:03.237Z,21.32
2022-09-15T20:17:31.294Z,21.37
2022-09-15T20:20:00.829Z,21.39
2022-09-15T20:22:28.881Z,21.47
2022-09-15T20:24:57.389Z,21.58
2022-09-15T20:27:25.468Z,21.65
2022-09-15T20:29:53.412Z,21.65
2022-09-15T20:32:27.484Z,21.64
2022-09-15T20:34:55.514Z,21.63
2022-09-15T20:37:24.819Z,21.64
2022-09-15T20:39:52.846Z,21.71
2022-09-15T20:42:20.794Z,21.81
2022-09-15T20:44:48.738Z,21.91
2022-09-15T20:47:16.918Z,21.97
2022-09-15T20:49:44.951Z,22.01
2022-09-15T20:52:12.948Z,22.04
2022-09-15T20:54:42.311Z,22.01
2022-09-15T20:57:10.443Z,22.03
2022-09-15T20:59:38.422Z,21.99
2022-09-15T21:02:07.593Z,21.87
2022-09-15T21:04:35.594Z,21.74
2022-09-15T21:07:03.597Z,21.68
2022-09-15T21:09:31.935Z,21.59
2022-09-15T21:12:01.362Z,21.52
2022-09-15T21:14:29.495Z,21.46
2022-09-15T21:16:57.533Z,21.41
2022-09-15T21:19:25.514Z,21.39
2022-09-15T21:21:54.983Z,21.39
2022-09-15T21:24:23.076Z,21.42
2022-09-15T21:27:08.502Z,21.46
2022-09-15T21:29:37.907Z,21.44
2022-09-15T21:32:06.087Z,21.48
2022-09-15T21:34:34.221Z,21.49
2022-09-15T21:37:02.277Z,21.46
2022-09-15T21:39:30.383Z,21.44
2022-09-15T21:41:58.463Z,21.43
2022-09-15T21:44:26.633Z,21.41
2022-09-15T21:46:56.101Z,21.35
2022-09-15T21:49:24.120Z,21.28
2022-09-15T21:51:52.132Z,21.19
2022-09-15T21:54:20.160Z,21.22
2022-09-15T21:56:48.170Z,21.14
2022-09-15T21:59:18.274Z,21.15
2022-09-15T22:01:46.389Z,21.10
2022-09-15T22:04:16.050Z,21.08
2022-09-15T22:06:44.946Z,21.06
2022-09-15T22:09:15.834Z,21.00
2022-09-15T22:11:43.812Z,20.94
2022-09-15T22:14:14.297Z,20.83
2022-09-15T22:16:43.598Z,20.83
2022-09-15T22:19:13.453Z,20.78
2022-09-15T22:21:42.896Z,20.75
2022-09-15T22:24:12.827Z,20.70
2022-09-15T22:26:42.139Z,20.61
2022-09-15T22:29:10.357Z,20.55
2022-09-15T22:31:38.894Z,20.49
2022-09-15T22:34:06.967Z,20.44
2022-09-15T22:36:35.167Z,20.38
2022-09-15T22:39:05.677Z,20.33
2022-09-15T22:41:36.726Z,20.26
2022-09-15T22:44:05.492Z,20.22
2022-09-15T22:46:33.868Z,20.18
2022-09-15T22:49:02.194Z,20.15
2022-09-15T22:51:30.759Z,20.12
2022-09-15T22:53:59.344Z,20.07
2022-09-15T22:56:28.720Z,20.03
2022-09-15T22:58:57.487Z,20.04
2022-09-15T23:01:28.096Z,20.02
2022-09-15T23:03:57.390Z,19.96
2022-09-15T23:06:27.281Z,19.92
2022-09-15T23:08:56.926Z,19.90
2022-09-15T23:11:25.884Z,19.88
2022-09-15T23:13:56.422Z,19.83
2022-09-15T23:16:25.742Z,19.84
2022-09-15T23:18:54.563Z,19.85
2022-09-15T23:21:22.761Z,19.87
2022-09-15T23:23:50.745Z,19.90
2022-09-15T23:26:20.431Z,19.95
2022-09-15T23:28:49.243Z,20.02
2022-09-15T23:31:19.505Z,20.03
2022-09-15T23:33:47.913Z,20.04
2022-09-15T23:36:19.551Z,20.02
2022-09-15T23:38:49.274Z,20.00
2022-09-15T23:41:18.657Z,19.96
2022-09-15T23:43:47.150Z,19.90
2022-09-15T23:46:15.455Z,19.93
2022-09-15T23:48:45.153Z,19.99
2022-09-15T23:51:13.197Z,20.09
2022-09-15T23:53:41.588Z,20.24
2022-09-15T23:56:09.838Z,20.27
2022-09-15T23:58:37.887Z,20.32
